createdAt,value
2018-04-09T00:00:22.450Z,4.10
2018-04-09T00:01:29.220Z,4.10
2018-04-09T00:02:35.983Z,4.40
2018-04-09T00:03:42.651Z,4.60
2018-04-09T00:04:49.334Z,5.00
2018-04-09T00:05:56.048Z,4.40
2018-04-09T00:07:02.792Z,4.30
2018-04-09T00:08:09.463Z,4.40
2018-04-09T00:09:16.145Z,4.30
2018-04-09T00:10:22.839Z,4.80
2018-04-09T00:11:29.677Z,4.50
2018-04-09T00:12:36.336Z,4.70
2018-04-09T00:13:43.144Z,4.50
2018-04-09T00:14:49.851Z,4.30
2018-04-09T00:15:56.605Z,4.20
2018-04-09T00:17:03.315Z,4.40
2018-04-09T00:18:10.040Z,4.40
2018-04-09T00:19:16.858Z,4.20
2018-04-09T00:20:23.540Z,4.20
2018-04-09T00:21:30.252Z,4.30
2018-04-09T00:22:36.914Z,4.10
2018-04-09T00:23:44.085Z,4.20
2018-04-09T00:24:50.784Z,4.60
2018-04-09T00:25:57.532Z,4.40
2018-04-09T00:27:04.229Z,4.60
2018-04-09T00:28:10.892Z,4.60
2018-04-09T00:29:17.580Z,4.60
2018-04-09T00:30:24.731Z,3.90
2018-04-09T00:31:31.435Z,4.10
2018-04-09T00:32:38.516Z,4.90
2018-04-09T00:33:45.364Z,4.10
2018-04-09T00:34:52.535Z,4.80
2018-04-09T00:35:59.223Z,3.80
2018-04-09T00:37:05.981Z,4.90
2018-04-09T00:38:12.719Z,4.30
2018-04-09T00:39:19.470Z,4.30
2018-04-09T00:40:26.324Z,4.60
2018-04-09T00:41:33.051Z,4.30
2018-04-09T00:42:39.747Z,4.30
2018-04-09T00:43:46.504Z,4.80
2018-04-09T00:44:53.185Z,4.20
2018-04-09T00:45:59.880Z,4.40
2018-04-09T00:47:06.691Z,4.30
2018-04-09T00:48:13.375Z,3.90
2018-04-09T00:49:20.074Z,4.30
2018-04-09T00:50:26.748Z,4.00
2018-04-09T00:51:33.444Z,4.10
2018-04-09T00:52:40.265Z,3.90
2018-04-09T00:53:47.032Z,4.40
2018-04-09T00:54:53.935Z,3.80
2018-04-09T00:56:00.864Z,4.00
2018-04-09T00:57:07.615Z,3.80
2018-04-09T00:58:14.329Z,4.70
2018-04-09T00:59:21.108Z,4.40
2018-04-09T01:00:27.793Z,4.60
2018-04-09T01:01:34.640Z,4.30
2018-04-09T01:02:41.444Z,4.10
2018-04-09T01:03:48.175Z,4.40
2018-04-09T01:04:54.858Z,4.40
2018-04-09T01:06:01.736Z,4.20
2018-04-09T01:07:08.524Z,4.20
2018-04-09T01:08:15.282Z,4.30
2018-04-09T01:09:22.377Z,4.10
2018-04-09T01:10:29.051Z,4.50
2018-04-09T01:11:36.212Z,4.20
2018-04-09T01:12:43.378Z,4.20
2018-04-09T01:13:50.575Z,4.90
2018-04-09T01:14:57.323Z,4.20
2018-04-09T01:16:03.999Z,4.20
2018-04-09T01:17:10.782Z,4.50
2018-04-09T01:18:17.475Z,4.50
2018-04-09T01:19:24.233Z,4.00
2018-04-09T01:20:31.051Z,4.40
2018-04-09T01:21:37.778Z,4.10
2018-04-09T01:22:44.588Z,4.20
2018-04-09T01:23:51.317Z,4.60
2018-04-09T01:24:58.040Z,4.30
2018-04-09T01:26:04.779Z,4.40
2018-04-09T01:27:11.512Z,4.30
2018-04-09T01:28:18.224Z,4.40
2018-04-09T01:29:25.032Z,4.10
2018-04-09T01:30:31.728Z,4.00
2018-04-09T01:31:38.530Z,4.40
2018-04-09T01:32:45.463Z,4.50
2018-04-09T01:33:52.176Z,4.30
2018-04-09T01:34:58.999Z,4.60
2018-04-09T01:36:05.703Z,4.50
2018-04-09T01:37:12.446Z,4.50
2018-04-09T01:38:19.155Z,4.30
2018-04-09T01:39:25.879Z,4.40
2018-04-09T01:40:32.580Z,4.10
2018-04-09T01:41:39.348Z,4.60
2018-04-09T01:42:46.042Z,4.60
2018-04-09T01:43:52.832Z,4.50
2018-04-09T01:44:59.599Z,4.80
2018-04-09T01:46:06.552Z,4.70
2018-04-09T01:47:13.308Z,4.50
2018-04-09T01:48:20.016Z,4.70
2018-04-09T01:49:26.695Z,4.50
2018-04-09T01:50:33.557Z,4.50
2018-04-09T01:51:40.263Z,4.50
2018-04-09T01:52:46.975Z,5.10
2018-04-09T01:53:53.707Z,4.60
2018-04-09T01:55:00.427Z,5.10
2018-04-09T01:56:07.269Z,5.10
2018-04-09T01:57:14.016Z,4.60
2018-04-09T01:58:20.725Z,4.50
2018-04-09T01:59:27.457Z,4.80
2018-04-09T02:00:34.180Z,4.60
2018-04-09T02:01:40.988Z,4.80
2018-04-09T02:02:47.668Z,4.40
2018-04-09T02:03:54.373Z,4.30
2018-04-09T02:05:01.096Z,4.10
2018-04-09T02:06:07.860Z,4.60
2018-04-09T02:07:14.690Z,4.60
2018-04-09T02:08:21.390Z,4.80
2018-04-09T02:09:28.336Z,4.20
2018-04-09T02:10:35.496Z,4.10
2018-04-09T02:11:42.268Z,4.40
2018-04-09T02:12:48.948Z,4.10
2018-04-09T02:13:55.659Z,3.80
2018-04-09T02:15:02.418Z,4.50
2018-04-09T02:16:09.352Z,4.60
2018-04-09T02:17:16.120Z,4.60
2018-04-09T02:18:22.832Z,4.70
2018-04-09T02:19:29.546Z,4.50
2018-04-09T02:20:36.221Z,4.70
2018-04-09T02:21:43.032Z,4.40
2018-04-09T02:22:49.717Z,4.90
2018-04-09T02:23:56.405Z,5.20
2018-04-09T02:25:03.092Z,5.20
2018-04-09T02:26:09.791Z,4.60
2018-04-09T02:27:16.512Z,4.80
2018-04-09T02:28:23.195Z,5.10
2018-04-09T02:29:29.864Z,4.70
2018-04-09T02:30:36.540Z,4.50
2018-04-09T02:31:43.850Z,4.60
2018-04-09T02:32:50.553Z,4.50
2018-04-09T02:33:57.238Z,4.60
2018-04-09T02:35:03.958Z,4.60
2018-04-09T02:36:10.657Z,4.30
2018-04-09T02:37:17.644Z,4.60
2018-04-09T02:38:24.412Z,3.90
2018-04-09T02:39:31.118Z,4.40
2018-04-09T02:40:37.816Z,4.70
2018-04-09T02:41:44.492Z,4.30
2018-04-09T02:42:51.385Z,4.50
2018-04-09T02:43:58.096Z,4.60
2018-04-09T02:45:04.813Z,4.50
2018-04-09T02:46:11.540Z,4.60
2018-04-09T02:47:18.258Z,4.40
2018-04-09T02:48:25.031Z,4.40
2018-04-09T02:49:31.826Z,4.10
2018-04-09T02:50:38.536Z,4.70
2018-04-09T02:51:45.245Z,5.00
2018-04-09T02:52:51.964Z,4.70
2018-04-09T02:53:58.715Z,4.80
2018-04-09T02:55:05.413Z,4.70
2018-04-09T02:56:12.119Z,5.10
2018-04-09T02:57:18.851Z,5.30
2018-04-09T02:58:25.637Z,4.60
2018-04-09T02:59:32.539Z,4.70
2018-04-09T03:00:39.268Z,5.20
2018-04-09T03:01:46.069Z,4.30
2018-04-09T03:02:53.251Z,4.80
2018-04-09T03:04:00.024Z,4.90
2018-04-09T03:05:06.728Z,4.30
2018-04-09T03:06:13.728Z,4.10
2018-04-09T03:07:20.476Z,5.00
2018-04-09T03:08:27.217Z,4.80
2018-04-09T03:09:33.950Z,4.70
2018-04-09T03:10:40.644Z,4.70
2018-04-09T03:11:47.332Z,4.50
2018-04-09T03:12:54.036Z,4.60
2018-04-09T03:14:00.855Z,4.60
2018-04-09T03:15:07.567Z,5.00
2018-04-09T03:16:14.262Z,4.60
2018-04-09T03:17:20.949Z,4.80
2018-04-09T03:18:27.751Z,4.70
2018-04-09T03:19:34.605Z,4.30
2018-04-09T03:20:41.328Z,5.10
2018-04-09T03:21:48.141Z,4.70
2018-04-09T03:22:54.835Z,4.50
2018-04-09T03:24:01.720Z,4.90
2018-04-09T03:25:08.451Z,4.50
2018-04-09T03:26:15.167Z,4.50
2018-04-09T03:27:21.928Z,3.80
2018-04-09T03:28:28.659Z,4.80
2018-04-09T03:29:35.471Z,5.10
2018-04-09T03:30:42.219Z,4.10
2018-04-09T03:31:48.925Z,4.80
2018-04-09T03:32:55.725Z,5.00
2018-04-09T03:34:02.414Z,5.00
2018-04-09T03:35:09.195Z,4.80
2018-04-09T03:36:15.917Z,5.20
2018-04-09T03:37:22.727Z,4.90
2018-04-09T03:38:29.459Z,4.90
2018-04-09T03:39:36.282Z,5.20
2018-04-09T03:40:42.975Z,4.70
2018-04-09T03:41:49.689Z,4.70
2018-04-09T03:42:56.402Z,4.70
2018-04-09T03:44:03.159Z,4.50
2018-04-09T03:45:09.888Z,5.10
2018-04-09T03:46:16.681Z,5.00
2018-04-09T03:47:23.404Z,4.40
2018-04-09T03:48:30.142Z,4.30
2018-04-09T03:49:36.893Z,5.30
2018-04-09T03:50:43.592Z,4.50
2018-04-09T03:51:50.601Z,5.00
2018-04-09T03:52:57.392Z,5.00
2018-04-09T03:54:04.119Z,4.70
2018-04-09T03:55:10.911Z,4.50
2018-04-09T03:56:17.612Z,4.50
2018-04-09T03:57:24.337Z,5.00
2018-04-09T03:58:31.122Z,4.80
2018-04-09T03:59:37.868Z,4.80
2018-04-09T04:00:44.700Z,4.90
2018-04-09T04:01:51.436Z,4.90
2018-04-09T04:02:58.159Z,5.40
2018-04-09T04:04:04.885Z,5.00
2018-04-09T04:05:11.783Z,5.10
2018-04-09T04:06:18.521Z,5.10
2018-04-09T04:07:25.248Z,5.30
2018-04-09T04:08:31.952Z,4.80
2018-04-09T04:09:38.701Z,5.70
2018-04-09T04:10:45.438Z,4.70
2018-04-09T04:11:52.200Z,4.90
2018-04-09T04:12:58.899Z,4.90
2018-04-09T04:14:05.621Z,4.60
2018-04-09T04:15:12.348Z,4.50
2018-04-09T04:16:19.067Z,4.90
2018-04-09T04:17:26.024Z,4.80
2018-04-09T04:18:33.093Z,5.00
2018-04-09T04:19:39.947Z,5.10
2018-04-09T04:20:47.388Z,5.10
2018-04-09T04:21:54.448Z,4.60
2018-04-09T04:23:01.212Z,4.60
2018-04-09T04:24:07.901Z,5.60
2018-04-09T04:25:14.571Z,5.70
2018-04-09T04:26:21.268Z,5.20
2018-04-09T04:27:27.985Z,6.00
2018-04-09T04:28:34.676Z,5.40
2018-04-09T04:29:41.412Z,5.10
2018-04-09T04:30:48.089Z,5.30
2018-04-09T04:31:54.795Z,5.30
2018-04-09T04:33:01.481Z,5.50
2018-04-09T04:34:08.282Z,5.40
2018-04-09T04:35:15.067Z,4.50
2018-04-09T04:36:21.752Z,5.00
2018-04-09T04:37:28.463Z,5.60
2018-04-09T04:38:35.161Z,5.10
2018-04-09T04:39:41.912Z,4.80
2018-04-09T04:40:48.581Z,4.90
2018-04-09T04:41:55.522Z,4.70
2018-04-09T04:43:02.236Z,4.90
2018-04-09T04:44:08.948Z,5.00
2018-04-09T04:45:15.668Z,5.10
2018-04-09T04:46:22.785Z,5.80
2018-04-09T04:47:29.584Z,5.80
2018-04-09T04:48:36.296Z,6.00
2018-04-09T04:49:43.005Z,5.60
2018-04-09T04:50:49.716Z,5.10
2018-04-09T04:51:56.440Z,6.00
2018-04-09T04:53:03.517Z,5.20
2018-04-09T04:54:10.217Z,5.60
2018-04-09T04:55:16.932Z,5.40
2018-04-09T04:56:23.681Z,4.70
2018-04-09T04:57:30.548Z,5.10
2018-04-09T04:58:37.290Z,5.30
2018-04-09T04:59:43.984Z,5.40
2018-04-09T05:00:50.702Z,4.90
2018-04-09T05:01:57.399Z,5.40
2018-04-09T05:03:04.121Z,5.10
2018-04-09T05:04:10.804Z,6.40
2018-04-09T05:05:17.585Z,5.10
2018-04-09T05:06:24.292Z,5.20
2018-04-09T05:07:30.986Z,5.20
2018-04-09T05:08:37.741Z,5.30
2018-04-09T05:09:44.420Z,5.80
2018-04-09T05:10:51.139Z,5.50
2018-04-09T05:11:57.829Z,5.10
2018-04-09T05:13:04.527Z,5.60
2018-04-09T05:14:11.440Z,5.50
2018-04-09T05:15:18.143Z,5.50
2018-04-09T05:16:25.326Z,4.90
2018-04-09T05:17:32.067Z,5.50
2018-04-09T05:18:38.792Z,5.10
2018-04-09T05:19:45.836Z,5.70
2018-04-09T05:20:52.549Z,5.20
2018-04-09T05:21:59.247Z,5.20
2018-04-09T05:23:06.335Z,5.20
2018-04-09T05:24:13.047Z,5.20
2018-04-09T05:25:19.851Z,5.00
2018-04-09T05:26:26.588Z,5.40
2018-04-09T05:27:33.371Z,6.00
2018-04-09T05:28:40.119Z,5.50
2018-04-09T05:29:47.150Z,5.70
2018-04-09T05:30:53.895Z,5.90
2018-04-09T05:32:00.599Z,8.30
2018-04-09T05:33:07.732Z,8.80
2018-04-09T05:34:14.579Z,8.70
2018-04-09T05:35:21.324Z,8.50
2018-04-09T05:36:28.280Z,7.20
2018-04-09T05:37:35.027Z,6.20
2018-04-09T05:38:41.852Z,6.10
2018-04-09T05:39:48.828Z,5.80
2018-04-09T05:40:55.560Z,5.90
2018-04-09T05:42:02.308Z,6.20
2018-04-09T05:43:09.012Z,6.70
2018-04-09T05:44:15.755Z,7.00
2018-04-09T05:45:22.524Z,6.20
2018-04-09T05:46:29.224Z,6.30
2018-04-09T05:47:35.996Z,7.40
2018-04-09T05:48:42.708Z,6.30
2018-04-09T05:49:49.637Z,6.70
2018-04-09T05:50:56.359Z,6.60
2018-04-09T05:52:03.096Z,7.20
2018-04-09T05:53:09.852Z,6.80
2018-04-09T05:54:16.584Z,7.20
2018-04-09T05:55:23.399Z,6.50
2018-04-09T05:56:30.121Z,6.80
2018-04-09T05:57:36.925Z,7.80
2018-04-09T05:58:43.805Z,6.70
2018-04-09T05:59:50.639Z,7.00
2018-04-09T06:00:57.137Z,7.30
2018-04-09T06:02:03.896Z,7.10
2018-04-09T06:03:10.676Z,6.50
2018-04-09T06:04:17.434Z,6.40
2018-04-09T06:05:24.278Z,6.10
2018-04-09T06:06:30.988Z,5.90
2018-04-09T06:07:37.736Z,6.50
2018-04-09T06:08:44.511Z,7.30
2018-04-09T06:09:51.225Z,6.00
2018-04-09T06:10:58.029Z,7.40
2018-04-09T06:12:04.778Z,9.10
2018-04-09T06:13:11.552Z,9.10
2018-04-09T06:14:18.288Z,9.40
2018-04-09T06:15:25.116Z,10.10
2018-04-09T06:16:31.980Z,8.20
2018-04-09T06:17:38.831Z,7.10
2018-04-09T06:18:45.787Z,7.60
2018-04-09T06:19:52.559Z,7.30
2018-04-09T06:20:59.566Z,8.80
2018-04-09T06:22:06.467Z,13.40
2018-04-09T06:23:13.208Z,13.20
2018-04-09T06:24:20.053Z,12.60
2018-04-09T06:25:26.752Z,14.30
2018-04-09T06:26:33.426Z,10.50
2018-04-09T06:27:40.137Z,9.00
2018-04-09T06:28:46.898Z,9.80
2018-04-09T06:29:54.121Z,8.80
2018-04-09T06:31:01.055Z,9.50
2018-04-09T06:32:08.038Z,8.90
2018-04-09T06:33:14.819Z,9.60
2018-04-09T06:34:21.602Z,10.40
2018-04-09T06:35:28.465Z,9.60
2018-04-09T06:36:36.029Z,10.80
2018-04-09T06:37:42.863Z,9.70
2018-04-09T06:38:49.656Z,10.20
2018-04-09T06:39:56.444Z,9.50
2018-04-09T06:41:03.262Z,9.20
2018-04-09T06:42:10.124Z,9.80
2018-04-09T06:43:17.317Z,9.10
2018-04-09T06:44:24.206Z,9.20
2018-04-09T06:45:30.742Z,9.30
2018-04-09T06:46:37.457Z,8.40
2018-04-09T06:47:44.395Z,8.60
2018-04-09T06:48:51.278Z,8.00
2018-04-09T06:49:58.018Z,9.00
2018-04-09T06:51:04.753Z,9.00
2018-04-09T06:52:11.621Z,9.20
2018-04-09T06:53:18.472Z,8.80
2018-04-09T06:54:25.218Z,8.90
2018-04-09T06:55:31.995Z,9.40
2018-04-09T06:56:39.078Z,9.00
2018-04-09T06:57:45.822Z,9.20
2018-04-09T06:58:52.668Z,8.60
2018-04-09T06:59:59.456Z,8.60
2018-04-09T07:01:06.167Z,9.30
2018-04-09T07:02:12.886Z,8.70
2018-04-09T07:03:19.662Z,9.70
2018-04-09T07:04:26.609Z,9.10
2018-04-09T07:05:33.827Z,9.70
2018-04-09T07:06:40.503Z,8.80
2018-04-09T07:07:47.220Z,9.80
2018-04-09T07:08:53.943Z,9.90
2018-04-09T07:10:00.703Z,9.50
2018-04-09T07:11:07.413Z,9.50
2018-04-09T07:12:14.149Z,8.90
2018-04-09T07:13:20.931Z,9.20
2018-04-09T07:14:27.636Z,8.80
2018-04-09T07:15:34.440Z,8.20
2018-04-09T07:16:41.469Z,8.80
2018-04-09T07:17:48.126Z,8.40
2018-04-09T07:18:55.456Z,8.70
2018-04-09T07:20:02.180Z,8.90
2018-04-09T07:21:09.232Z,9.10
2018-04-09T07:22:16.154Z,8.80
2018-04-09T07:23:23.046Z,9.30
2018-04-09T07:24:30.099Z,8.50
2018-04-09T07:25:37.152Z,9.00
2018-04-09T07:26:43.748Z,9.00
2018-04-09T07:27:50.780Z,8.50
2018-04-09T07:28:57.729Z,8.70
2018-04-09T07:30:04.471Z,8.50
2018-04-09T07:31:11.393Z,7.70
2018-04-09T07:32:18.472Z,8.20
2018-04-09T07:33:25.085Z,8.10
2018-04-09T07:34:32.066Z,8.30
2018-04-09T07:35:38.960Z,8.00
2018-04-09T07:36:46.138Z,8.70
2018-04-09T07:37:52.765Z,8.40
2018-04-09T07:38:59.488Z,8.20
2018-04-09T07:40:06.295Z,8.00
2018-04-09T07:41:13.178Z,8.40
2018-04-09T07:42:20.311Z,7.80
2018-04-09T07:43:27.188Z,8.00
2018-04-09T07:44:34.071Z,9.80
2018-04-09T07:45:40.987Z,11.10
2018-04-09T07:46:48.040Z,8.30
2018-04-09T07:47:54.823Z,8.10
2018-04-09T07:49:01.846Z,8.00
2018-04-09T07:50:08.619Z,9.00
2018-04-09T07:51:15.703Z,9.30
2018-04-09T07:52:22.857Z,9.80
2018-04-09T07:53:29.675Z,9.30
2018-04-09T07:54:36.544Z,9.60
2018-04-09T07:55:43.393Z,10.60
2018-04-09T07:56:50.087Z,10.40
2018-04-09T07:57:57.275Z,10.30
2018-04-09T07:59:04.176Z,10.10
2018-04-09T08:00:10.926Z,10.50
2018-04-09T08:01:18.062Z,10.70
2018-04-09T08:02:25.115Z,9.50
2018-04-09T08:03:31.831Z,10.00
2018-04-09T08:04:38.757Z,9.60
2018-04-09T08:05:45.714Z,9.50
2018-04-09T08:06:52.737Z,8.50
2018-04-09T08:07:59.581Z,9.70
2018-04-09T08:09:06.846Z,8.50
2018-04-09T08:10:13.479Z,8.20
2018-04-09T08:11:20.299Z,8.40
2018-04-09T08:12:27.024Z,8.60
2018-04-09T08:13:33.734Z,7.70
2018-04-09T08:14:41.320Z,8.20
2018-04-09T08:15:47.629Z,8.40
2018-04-09T08:16:54.319Z,8.30
2018-04-09T08:18:01.162Z,7.90
2018-04-09T08:19:07.912Z,7.50
2018-04-09T08:20:14.748Z,7.20
2018-04-09T08:21:21.611Z,9.00
2018-04-09T08:22:28.409Z,8.00
2018-04-09T08:23:35.153Z,8.20
2018-04-09T08:24:42.287Z,7.80
2018-04-09T08:25:49.149Z,8.20
2018-04-09T08:26:55.660Z,8.20
2018-04-09T08:28:02.808Z,7.70
2018-04-09T08:29:09.839Z,7.30
2018-04-09T08:30:16.446Z,7.90
2018-04-09T08:31:23.526Z,6.90
2018-04-09T08:32:30.405Z,7.30
2018-04-09T08:33:37.423Z,9.10
2018-04-09T08:34:44.201Z,8.00
2018-04-09T08:35:50.960Z,8.40
2018-04-09T08:36:57.814Z,8.50
2018-04-09T08:38:04.868Z,8.20
2018-04-09T08:39:11.625Z,7.20
2018-04-09T08:40:18.471Z,7.80
2018-04-09T08:41:25.656Z,7.40
2018-04-09T08:42:32.100Z,7.90
2018-04-09T08:43:38.931Z,7.90
2018-04-09T08:44:45.816Z,7.30
2018-04-09T08:45:52.584Z,7.20
2018-04-09T08:46:59.331Z,7.60
2018-04-09T08:48:06.009Z,8.40
2018-04-09T08:49:12.748Z,8.50
2018-04-09T08:50:19.583Z,7.40
2018-04-09T08:51:26.293Z,8.00
2018-04-09T08:52:33.048Z,8.30
2018-04-09T08:53:39.760Z,8.40
2018-04-09T08:54:46.476Z,8.80
2018-04-09T08:55:53.195Z,9.20
2018-04-09T08:56:59.975Z,8.70
2018-04-09T08:58:06.737Z,10.70
2018-04-09T08:59:13.497Z,9.50
2018-04-09T09:00:20.256Z,10.30
2018-04-09T09:01:27.100Z,10.40
2018-04-09T09:02:33.822Z,9.20
2018-04-09T09:03:40.571Z,10.40
2018-04-09T09:04:47.324Z,10.60
2018-04-09T09:05:54.061Z,10.10
2018-04-09T09:07:00.825Z,10.50
2018-04-09T09:08:07.812Z,10.00
2018-04-09T09:09:14.635Z,10.80
2018-04-09T09:10:21.356Z,10.30
2018-04-09T09:11:28.104Z,9.60
2018-04-09T09:12:34.868Z,10.10
2018-04-09T09:13:41.588Z,9.80
2018-04-09T09:14:48.428Z,9.70
2018-04-09T09:15:55.129Z,10.30
2018-04-09T09:17:01.875Z,11.90
2018-04-09T09:18:08.579Z,11.10
2018-04-09T09:19:15.288Z,11.10
2018-04-09T09:20:22.036Z,11.70
2018-04-09T09:21:28.822Z,10.30
2018-04-09T09:22:35.552Z,8.90
2018-04-09T09:23:42.384Z,10.10
2018-04-09T09:24:49.090Z,10.30
2018-04-09T09:25:56.004Z,10.30
2018-04-09T09:27:02.779Z,9.70
2018-04-09T09:28:09.736Z,9.70
2018-04-09T09:29:16.468Z,10.40
2018-04-09T09:30:23.203Z,10.50
2018-04-09T09:31:29.942Z,9.60
2018-04-09T09:32:36.699Z,9.10
2018-04-09T09:33:43.491Z,8.70
2018-04-09T09:34:50.200Z,9.60
2018-04-09T09:35:56.945Z,9.80
2018-04-09T09:37:03.657Z,9.30
2018-04-09T09:38:10.383Z,9.80
2018-04-09T09:39:17.084Z,9.40
2018-04-09T09:40:23.878Z,9.60
2018-04-09T09:41:30.569Z,9.90
2018-04-09T09:42:37.304Z,10.50
2018-04-09T09:43:44.064Z,9.80
2018-04-09T09:44:50.757Z,9.40
2018-04-09T09:45:57.509Z,9.30
2018-04-09T09:47:04.243Z,9.10
2018-04-09T09:48:10.991Z,8.40
2018-04-09T09:49:17.784Z,8.60
2018-04-09T09:50:24.506Z,8.50
2018-04-09T09:51:31.417Z,8.30
2018-04-09T09:52:38.235Z,9.20
2018-04-09T09:53:44.940Z,8.90
2018-04-09T09:54:51.679Z,8.40
2018-04-09T09:55:58.429Z,9.00
2018-04-09T09:57:05.167Z,9.10
2018-04-09T09:58:11.964Z,8.90
2018-04-09T09:59:18.812Z,8.30
2018-04-09T10:00:25.564Z,8.90
2018-04-09T10:01:32.367Z,9.20
2018-04-09T10:02:39.207Z,9.20
2018-04-09T10:03:46.115Z,9.00
2018-04-09T10:04:52.859Z,9.30
2018-04-09T10:05:59.616Z,8.60
2018-04-09T10:07:06.476Z,8.30
2018-04-09T10:08:13.179Z,8.70
2018-04-09T10:09:19.934Z,8.80
2018-04-09T10:10:26.766Z,8.90
2018-04-09T10:11:33.572Z,8.40
2018-04-09T10:12:40.262Z,8.70
2018-04-09T10:13:47.010Z,8.90
2018-04-09T10:14:53.727Z,8.60
2018-04-09T10:16:00.466Z,8.90
2018-04-09T10:17:07.196Z,8.90
2018-04-09T10:18:14.040Z,8.60
2018-04-09T10:19:20.805Z,8.90
2018-04-09T10:20:27.556Z,8.20
2018-04-09T10:21:34.300Z,9.10
2018-04-09T10:22:41.140Z,8.90
2018-04-09T10:23:47.869Z,8.30
2018-04-09T10:24:54.638Z,7.90
2018-04-09T10:26:01.356Z,9.60
2018-04-09T10:27:08.167Z,8.60
2018-04-09T10:28:14.899Z,9.00
2018-04-09T10:29:21.723Z,9.00
2018-04-09T10:30:28.490Z,9.10
2018-04-09T10:31:35.337Z,9.20
2018-04-09T10:32:42.083Z,9.10
2018-04-09T10:33:48.998Z,8.20
2018-04-09T10:34:55.780Z,8.30
2018-04-09T10:36:02.512Z,8.90
2018-04-09T10:37:09.272Z,8.40
2018-04-09T10:38:16.296Z,8.80
2018-04-09T10:39:23.048Z,9.50
2018-04-09T10:40:29.803Z,8.60
2018-04-09T10:41:36.708Z,9.10
2018-04-09T10:42:43.434Z,9.40
2018-04-09T10:43:50.182Z,8.70
2018-04-09T10:44:57.215Z,9.80
2018-04-09T10:46:03.944Z,9.40
2018-04-09T10:47:10.671Z,8.90
2018-04-09T10:48:17.704Z,9.10
2018-04-09T10:49:24.514Z,9.00
2018-04-09T10:50:31.272Z,9.50
2018-04-09T10:51:38.097Z,9.70
2018-04-09T10:52:44.827Z,9.80
2018-04-09T10:53:51.576Z,9.60
2018-04-09T10:54:58.300Z,8.90
2018-04-09T10:56:05.055Z,9.30
2018-04-09T10:57:11.851Z,8.90
2018-04-09T10:58:18.596Z,9.20
2018-04-09T10:59:25.358Z,9.00
2018-04-09T11:00:32.202Z,9.20
2018-04-09T11:01:38.931Z,9.50
2018-04-09T11:02:45.762Z,10.00
2018-04-09T11:03:52.649Z,9.40
2018-04-09T11:04:59.416Z,10.20
2018-04-09T11:06:06.261Z,9.60
2018-04-09T11:07:13.008Z,9.10
2018-04-09T11:08:19.819Z,10.30
2018-04-09T11:09:26.533Z,9.00
2018-04-09T11:10:33.299Z,10.20
2018-04-09T11:11:40.039Z,9.40
2018-04-09T11:12:46.936Z,9.70
2018-04-09T11:13:53.781Z,9.40
2018-04-09T11:15:00.532Z,8.70
2018-04-09T11:16:07.415Z,9.30
2018-04-09T11:17:14.140Z,9.80
2018-04-09T11:18:20.891Z,8.70
2018-04-09T11:19:27.692Z,9.20
2018-04-09T11:20:34.488Z,9.50
2018-04-09T11:21:41.237Z,9.60
2018-04-09T11:22:47.977Z,10.20
2018-04-09T11:23:54.716Z,10.10
2018-04-09T11:25:01.440Z,9.60
2018-04-09T11:26:08.268Z,9.30
2018-04-09T11:27:14.992Z,9.10
2018-04-09T11:28:21.732Z,9.40
2018-04-09T11:29:28.635Z,10.80
2018-04-09T11:30:35.350Z,9.70
2018-04-09T11:31:42.192Z,9.40
2018-04-09T11:32:48.941Z,9.10
2018-04-09T11:33:55.756Z,10.00
2018-04-09T11:35:02.468Z,9.70
2018-04-09T11:36:09.221Z,9.40
2018-04-09T11:37:15.991Z,9.80
2018-04-09T11:38:22.914Z,10.40
2018-04-09T11:39:29.642Z,9.40
2018-04-09T11:40:36.358Z,10.00
2018-04-09T11:41:43.061Z,9.50
2018-04-09T11:42:49.982Z,9.10
2018-04-09T11:43:56.807Z,10.70
2018-04-09T11:45:03.566Z,9.10
2018-04-09T11:46:10.302Z,9.70
2018-04-09T11:47:17.029Z,9.70
2018-04-09T11:48:23.789Z,9.40
2018-04-09T11:49:30.510Z,10.40
2018-04-09T11:50:37.255Z,9.70
2018-04-09T11:51:44.041Z,9.60
2018-04-09T11:52:50.786Z,10.20
2018-04-09T11:53:57.532Z,9.00
2018-04-09T11:55:04.253Z,9.40
2018-04-09T11:56:11.023Z,9.30
2018-04-09T11:57:17.825Z,10.50
2018-04-09T11:58:24.536Z,10.20
2018-04-09T11:59:31.309Z,9.50
2018-04-09T12:00:38.254Z,9.60
2018-04-09T12:01:44.998Z,8.90
2018-04-09T12:02:51.767Z,9.20
2018-04-09T12:03:58.478Z,9.30
2018-04-09T12:05:05.209Z,8.80
2018-04-09T12:06:12.019Z,9.40
2018-04-09T12:07:18.730Z,9.20
2018-04-09T12:08:25.478Z,9.20
2018-04-09T12:09:32.231Z,8.80
2018-04-09T12:10:39.214Z,9.50
2018-04-09T12:11:45.942Z,9.60
2018-04-09T12:12:52.675Z,10.40
2018-04-09T12:13:59.398Z,10.60
2018-04-09T12:15:06.113Z,9.70
2018-04-09T12:16:12.924Z,9.40
2018-04-09T12:17:19.678Z,11.20
2018-04-09T12:18:26.448Z,10.40
2018-04-09T12:19:33.167Z,9.00
2018-04-09T12:20:39.973Z,9.70
2018-04-09T12:21:46.662Z,10.00
2018-04-09T12:22:53.364Z,10.30
2018-04-09T12:24:00.103Z,10.70
2018-04-09T12:25:06.834Z,9.20
2018-04-09T12:26:13.538Z,9.80
2018-04-09T12:27:20.246Z,9.30
2018-04-09T12:28:27.054Z,9.90
2018-04-09T12:29:33.793Z,9.70
2018-04-09T12:30:40.550Z,10.20
2018-04-09T12:31:47.313Z,9.60
2018-04-09T12:32:53.985Z,10.90
2018-04-09T12:34:00.685Z,10.30
2018-04-09T12:35:07.452Z,10.30
2018-04-09T12:36:14.150Z,10.40
2018-04-09T12:37:20.838Z,9.70
2018-04-09T12:38:27.666Z,9.80
2018-04-09T12:39:34.395Z,9.30
2018-04-09T12:40:41.179Z,10.50
2018-04-09T12:41:47.881Z,9.30
2018-04-09T12:42:54.646Z,9.80
2018-04-09T12:44:01.398Z,10.00
2018-04-09T12:45:08.102Z,9.80
2018-04-09T12:46:14.959Z,9.30
2018-04-09T12:47:21.702Z,9.30
2018-04-09T12:48:28.394Z,9.30
2018-04-09T12:49:35.139Z,10.50
2018-04-09T12:50:41.847Z,9.50
2018-04-09T12:51:48.591Z,10.40
2018-04-09T12:52:55.407Z,9.80
2018-04-09T12:54:02.143Z,9.50
2018-04-09T12:55:08.906Z,10.30
2018-04-09T12:56:15.650Z,10.20
2018-04-09T12:57:22.351Z,10.10
2018-04-09T12:58:29.179Z,10.00
2018-04-09T12:59:35.958Z,9.00
2018-04-09T13:00:42.706Z,9.80
2018-04-09T13:01:49.406Z,10.00
2018-04-09T13:02:56.217Z,10.40
2018-04-09T13:04:02.927Z,10.40
2018-04-09T13:05:09.714Z,10.40
2018-04-09T13:06:16.486Z,9.70
2018-04-09T13:07:23.190Z,10.00
2018-04-09T13:08:30.294Z,10.00
2018-04-09T13:09:36.980Z,9.10
2018-04-09T13:10:43.794Z,9.90
2018-04-09T13:11:50.489Z,9.70
2018-04-09T13:12:57.226Z,10.60
2018-04-09T13:14:03.938Z,10.30
2018-04-09T13:15:11.013Z,10.20
2018-04-09T13:16:17.749Z,10.40
2018-04-09T13:17:24.460Z,10.10
2018-04-09T13:18:31.156Z,10.10
2018-04-09T13:19:37.974Z,9.70
2018-04-09T13:20:44.721Z,9.80
2018-04-09T13:21:51.822Z,9.10
2018-04-09T13:22:58.585Z,10.20
2018-04-09T13:24:05.332Z,9.80
2018-04-09T13:25:12.193Z,9.70
2018-04-09T13:26:18.966Z,10.00
2018-04-09T13:27:25.709Z,10.20
2018-04-09T13:28:32.455Z,10.20
2018-04-09T13:29:39.170Z,11.50
2018-04-09T13:30:45.958Z,10.70
2018-04-09T13:31:52.986Z,10.10
2018-04-09T13:32:59.745Z,10.70
2018-04-09T13:34:06.487Z,9.80
2018-04-09T13:35:13.257Z,9.50
2018-04-09T13:36:19.997Z,9.70
2018-04-09T13:37:26.835Z,10.00
2018-04-09T13:38:33.642Z,9.50
2018-04-09T13:39:40.386Z,10.00
2018-04-09T13:40:47.217Z,8.60
2018-04-09T13:41:53.958Z,10.00
2018-04-09T13:43:00.697Z,9.70
2018-04-09T13:44:07.471Z,10.10
2018-04-09T13:45:14.466Z,9.70
2018-04-09T13:46:21.237Z,10.10
2018-04-09T13:47:28.010Z,9.70
2018-04-09T13:48:34.870Z,9.90
2018-04-09T13:49:41.606Z,9.60
2018-04-09T13:50:48.372Z,9.80
2018-04-09T13:51:55.102Z,9.50
2018-04-09T13:53:01.973Z,9.30
2018-04-09T13:54:08.753Z,9.90
2018-04-09T13:55:15.486Z,8.70
2018-04-09T13:56:22.241Z,9.40
2018-04-09T13:57:28.966Z,9.20
2018-04-09T13:58:35.784Z,9.20
2018-04-09T13:59:42.745Z,9.10
2018-04-09T14:00:49.548Z,8.60
2018-04-09T14:01:56.278Z,9.80
2018-04-09T14:03:03.032Z,8.20
2018-04-09T14:04:09.834Z,8.60
2018-04-09T14:05:16.673Z,9.50
2018-04-09T14:06:23.399Z,9.10
2018-04-09T14:07:30.131Z,8.90
2018-04-09T14:08:37.006Z,8.50
2018-04-09T14:09:43.820Z,9.30
2018-04-09T14:10:50.546Z,9.20
2018-04-09T14:11:57.351Z,8.50
2018-04-09T14:13:04.058Z,8.50
2018-04-09T14:14:10.806Z,8.70
2018-04-09T14:15:17.615Z,8.60
2018-04-09T14:16:24.342Z,8.10
2018-04-09T14:17:31.090Z,8.00
2018-04-09T14:18:37.866Z,8.20
2018-04-09T14:19:44.710Z,8.50
2018-04-09T14:20:51.454Z,8.70
2018-04-09T14:21:58.219Z,8.80
2018-04-09T14:23:04.951Z,8.80
2018-04-09T14:24:11.750Z,9.30
2018-04-09T14:25:18.719Z,8.90
2018-04-09T14:26:25.458Z,9.10
2018-04-09T14:27:32.297Z,8.20
2018-04-09T14:28:38.998Z,8.60
2018-04-09T14:29:45.813Z,8.50
2018-04-09T14:30:52.531Z,8.00
2018-04-09T14:31:59.222Z,7.90
2018-04-09T14:33:06.075Z,8.70
2018-04-09T14:34:12.795Z,9.10
2018-04-09T14:35:19.538Z,8.50
2018-04-09T14:36:26.241Z,9.00
2018-04-09T14:37:33.007Z,8.40
2018-04-09T14:38:39.827Z,8.20
2018-04-09T14:39:46.662Z,9.00
2018-04-09T14:40:53.366Z,8.40
2018-04-09T14:42:00.104Z,9.20
2018-04-09T14:43:06.957Z,8.70
2018-04-09T14:44:13.698Z,8.50
2018-04-09T14:45:20.413Z,9.50